Terminal Aerodrome Forecast
Issued by NWS Wilmington, OH

Current Version | Previous Version | Graphics & Text | Print | Product List | Glossary On
Versions: 1 2 3 4 5 6 7 8 9 10 11 12 13 14 15 16 17 18 19 20
000
FTUS41 KILN 061700
TAFDAY
TAF
KDAY 061729Z 0618/0718 VRB05KT P6SM SCT070
     FM070000 VRB03KT P6SM SKC
     FM070600 09004KT P6SM FEW120
     FM071600 16006KT P6SM SCT050=

USA.gov is the U.S. government's official web portal to all federal, state and local government web resources and services.